createdAt,value
2019-03-06T15:12:39.344Z,97431.78
2019-03-06T15:17:43.030Z,97431.34
2019-03-06T15:22:52.027Z,97422.19
2019-03-06T15:27:53.736Z,97424.83
2019-03-06T15:32:55.388Z,97416.59
2019-03-06T15:37:57.147Z,97417.79
2019-03-06T15:42:59.012Z,97411.17
2019-03-06T15:48:00.668Z,97409.48
2019-03-06T15:53:03.000Z,97405.42
2019-03-06T15:58:05.224Z,97394.09
2019-03-06T16:03:11.668Z,97392.25
2019-03-06T16:08:13.526Z,97383.41
2019-03-06T16:13:15.177Z,97376.03
2019-03-06T16:18:17.105Z,97366.76
2019-03-06T16:23:19.070Z,97363.09
2019-03-06T16:28:20.837Z,97360.58
2019-03-06T16:33:23.398Z,97352.81
2019-03-06T16:38:25.066Z,97357.27
2019-03-06T16:43:26.616Z,97367.81
2019-03-06T16:48:28.181Z,97362.00
2019-03-06T16:53:30.153Z,97365.25
2019-03-06T16:58:31.956Z,97373.69
2019-03-06T17:03:33.717Z,97378.74
2019-03-06T17:08:35.617Z,97379.27
2019-03-06T17:13:37.372Z,97374.48
2019-03-06T17:18:39.144Z,97361.01
2019-03-06T17:23:40.802Z,97351.09
2019-03-06T17:28:42.394Z,97346.14
2019-03-06T17:33:44.259Z,97328.66
2019-03-06T17:38:45.984Z,97321.28
2019-03-06T17:43:47.543Z,97328.95
2019-03-06T17:48:49.705Z,97312.67
2019-03-06T17:53:51.469Z,97301.44
2019-03-06T17:58:53.525Z,97295.77
2019-03-06T18:03:57.076Z,97289.19
2019-03-06T18:08:58.777Z,97284.06
2019-03-06T18:14:00.339Z,97267.50
2019-03-06T18:19:02.227Z,97267.80
2019-03-06T18:24:04.178Z,97254.80
2019-03-06T18:29:05.926Z,97238.52
2019-03-06T18:34:07.892Z,97230.80
2019-03-06T18:39:12.153Z,97228.66
2019-03-06T18:44:13.805Z,97225.28
2019-03-06T18:49:15.639Z,97211.17
2019-03-06T18:54:17.347Z,97210.11
2019-03-06T18:59:18.909Z,97216.03
2019-03-06T19:04:20.473Z,97214.34
2019-03-06T19:09:22.142Z,97217.34
2019-03-06T19:14:23.896Z,97209.05
2019-03-06T19:19:25.529Z,97209.31
2019-03-06T19:24:28.891Z,97209.20
2019-03-06T19:29:30.928Z,97208.53
2019-03-06T19:34:35.745Z,97203.50
2019-03-06T19:39:37.449Z,97200.52
2019-03-06T19:44:40.997Z,97192.47
2019-03-06T19:49:42.629Z,97192.47
2019-03-06T19:54:45.056Z,97180.45
2019-03-06T19:59:49.309Z,97189.57
2019-03-06T20:04:52.458Z,97179.80
2019-03-06T20:09:55.257Z,97170.89
2019-03-06T20:14:58.508Z,97171.42
2019-03-06T20:20:04.609Z,97161.21
2019-03-06T20:25:10.693Z,97164.41
2019-03-06T20:30:20.286Z,97161.50
2019-03-06T20:35:24.185Z,97158.27
2019-03-06T20:40:25.763Z,97153.77
2019-03-06T20:45:27.328Z,97141.41
2019-03-06T20:50:28.887Z,97136.88
2019-03-06T20:55:30.856Z,97121.16
2019-03-06T21:00:33.904Z,97123.44
2019-03-06T21:05:35.537Z,97117.00
2019-03-06T21:10:37.101Z,97107.70
2019-03-06T21:15:38.795Z,97110.48
2019-03-06T21:20:41.474Z,97109.20
2019-03-06T21:25:43.209Z,97095.76
2019-03-06T21:30:46.548Z,97097.48
2019-03-06T21:35:48.169Z,97085.59
2019-03-06T21:40:51.600Z,97085.69
2019-03-06T21:45:53.362Z,97080.86
2019-03-06T21:50:56.489Z,97065.45
2019-03-06T21:55:59.549Z,97067.18
2019-03-06T22:01:01.213Z,97049.23
2019-03-06T22:06:03.889Z,97058.24
2019-03-06T22:11:07.672Z,97051.36
2019-03-06T22:16:09.457Z,97041.11
2019-03-06T22:21:12.209Z,97035.23
2019-03-06T22:26:15.550Z,97035.09
2019-03-06T22:31:19.253Z,97020.50
2019-03-06T22:36:20.808Z,97019.11
2019-03-06T22:41:24.583Z,97019.94
2019-03-06T22:46:26.143Z,97003.41
2019-03-06T22:51:29.238Z,96988.72
2019-03-06T22:56:31.140Z,96972.72
2019-03-06T23:01:33.409Z,96981.89
2019-03-06T23:06:35.480Z,96968.50
2019-03-06T23:11:38.458Z,96946.99
2019-03-06T23:16:40.016Z,96939.78
2019-03-06T23:21:42.243Z,96936.85
2019-03-06T23:26:44.314Z,96926.63
2019-03-06T23:31:46.371Z,96924.20
2019-03-06T23:36:48.300Z,96911.23
2019-03-06T23:41:51.153Z,96895.50
2019-03-06T23:46:54.920Z,96879.11
2019-03-06T23:51:57.789Z,96881.75
2019-03-06T23:56:59.615Z,96864.28
